Time;durP1;ratioP1;P1;durP2;ratioP2;P2;SDS_P1;SDS_P2;PMS_P1;PMS_P2;Temp;Humidity;BMP_temperature;BMP_pressure;BME280_temperature;BME280_humidity;BME280_pressure;Samples;Min_cycle;Max_cycle;Signal;HPM_P1;HPM_P2
2022/11/14 00:00:53;;;;;;;9.17;6.27;;;13.00;99.90;;;;;;5072070;28;20192;-74
2022/11/14 00:03:20;;;;;;;9.33;6.53;;;13.00;99.90;;;;;;5052385;28;20205;-74
2022/11/14 00:05:46;;;;;;;7.10;5.70;;;13.00;99.90;;;;;;5067717;28;20210;-74
2022/11/14 00:08:22;;;;;;;8.20;5.80;;;13.00;99.90;;;;;;5052653;28;20264;-74
2022/11/14 00:10:50;;;;;;;7.37;6.50;;;13.00;99.90;;;;;;5074991;28;20182;-74
2022/11/14 00:13:19;;;;;;;7.97;6.13;;;13.00;99.90;;;;;;5068305;28;20185;-74
2022/11/14 00:15:50;;;;;;;8.80;6.30;;;13.00;99.90;;;;;;5071005;28;20737;-74
2022/11/14 00:18:17;;;;;;;7.63;5.70;;;13.00;99.90;;;;;;5053311;28;20239;-74
2022/11/14 00:20:48;;;;;;;8.20;6.40;;;13.10;99.90;;;;;;5069095;28;20277;-74
2022/11/14 00:23:15;;;;;;;10.00;6.30;;;13.10;99.90;;;;;;5097681;28;20214;-74
2022/11/14 00:25:43;;;;;;;8.57;6.43;;;13.10;99.90;;;;;;5088246;28;20749;-74
2022/11/14 00:28:09;;;;;;;7.13;6.23;;;13.10;99.90;;;;;;5072265;28;20230;-74
2022/11/14 00:30:36;;;;;;;8.07;6.80;;;13.10;99.90;;;;;;5074606;28;20249;-74
2022/11/14 00:33:02;;;;;;;7.47;6.10;;;13.10;99.90;;;;;;5066183;28;20194;-74
2022/11/14 00:35:32;;;;;;;9.40;6.33;;;13.00;99.90;;;;;;5069309;28;20186;-73
2022/11/14 00:37:59;;;;;;;10.17;6.50;;;13.00;99.90;;;;;;5063476;28;20527;-74
2022/11/14 00:40:25;;;;;;;8.13;6.20;;;13.00;99.90;;;;;;5083712;28;20182;-74
2022/11/14 00:42:51;;;;;;;9.00;6.53;;;13.00;99.90;;;;;;5052195;28;20216;-74
2022/11/14 00:45:17;;;;;;;9.50;6.60;;;13.00;99.90;;;;;;5051495;28;20596;-74
2022/11/14 00:47:44;;;;;;;9.73;7.23;;;13.00;99.90;;;;;;5069283;28;20617;-73
2022/11/14 00:50:10;;;;;;;9.50;7.07;;;13.00;99.90;;;;;;5066954;28;20213;-74
2022/11/14 00:52:37;;;;;;;8.47;6.67;;;13.00;99.90;;;;;;5054040;28;20673;-74
2022/11/14 00:55:05;;;;;;;8.00;6.50;;;13.00;99.90;;;;;;5061786;28;20186;-73
2022/11/14 00:57:33;;;;;;;10.13;6.93;;;13.10;99.90;;;;;;5079358;28;20194;-74
2022/11/14 00:59:59;;;;;;;8.03;6.60;;;13.10;99.90;;;;;;5058682;28;20186;-74
2022/11/14 01:02:26;;;;;;;8.03;6.97;;;13.10;99.90;;;;;;5060755;28;20229;-74
2022/11/14 01:04:52;;;;;;;8.70;6.63;;;13.10;99.90;;;;;;5061916;28;20694;-75
2022/11/14 01:07:18;;;;;;;9.33;6.70;;;13.20;99.90;;;;;;5062655;28;20298;-74
2022/11/14 01:09:45;;;;;;;8.27;7.10;;;13.30;99.90;;;;;;5069367;28;20182;-74
2022/11/14 01:12:11;;;;;;;11.73;7.27;;;13.30;99.90;;;;;;5085608;28;20594;-74
2022/11/14 01:14:39;;;;;;;8.97;7.13;;;13.40;99.90;;;;;;5049100;28;20191;-75
2022/11/14 01:17:08;;;;;;;11.03;7.50;;;13.40;99.90;;;;;;5067970;28;20512;-74
2022/11/14 01:19:35;;;;;;;9.70;7.23;;;13.40;99.90;;;;;;5076878;28;20190;-74
2022/11/14 01:22:01;;;;;;;9.27;7.23;;;13.40;99.90;;;;;;5081576;28;20190;-74
2022/11/14 01:24:27;;;;;;;9.17;7.40;;;13.40;99.90;;;;;;5052641;28;20301;-74
2022/11/14 01:26:57;;;;;;;8.47;7.27;;;13.40;99.90;;;;;;5088065;28;20194;-75
2022/11/14 01:29:25;;;;;;;9.13;7.77;;;13.50;99.90;;;;;;5078513;28;20273;-74
2022/11/14 01:31:52;;;;;;;9.63;7.43;;;13.50;99.90;;;;;;5084225;28;20188;-74
2022/11/14 01:34:18;;;;;;;9.70;7.87;;;13.50;99.90;;;;;;5056120;28;20187;-74
2022/11/14 01:36:45;;;;;;;8.87;7.10;;;13.50;99.90;;;;;;5076154;28;20219;-74
2022/11/14 01:39:11;;;;;;;11.43;6.87;;;13.40;99.90;;;;;;5068918;28;20597;-74
2022/11/14 01:41:38;;;;;;;8.60;7.70;;;13.40;99.90;;;;;;5080758;28;20194;-74
2022/11/14 01:44:44;;;;;;;10.50;7.23;;;13.40;99.90;;;;;;5081816;28;20621;-75
2022/11/14 01:47:16;;;;;;;10.97;7.83;;;13.40;99.90;;;;;;5046074;28;20282;-74
2022/11/14 01:49:48;;;;;;;10.70;7.87;;;13.30;99.90;;;;;;5078902;28;20217;-75
2022/11/14 01:52:28;;;;;;;9.87;8.37;;;13.30;99.90;;;;;;5076653;28;20343;-74
2022/11/14 01:55:00;;;;;;;10.23;8.43;;;13.30;99.90;;;;;;5057090;28;20251;-75
2022/11/14 01:57:44;;;;;;;9.27;8.00;;;13.30;99.90;;;;;;5070232;28;20228;-74
2022/11/14 02:00:12;;;;;;;11.00;8.33;;;13.20;99.90;;;;;;5050453;28;20194;-75
2022/11/14 02:02:42;;;;;;;9.37;7.90;;;13.20;99.90;;;;;;5074227;28;20194;-75
2022/11/14 02:05:15;;;;;;;10.70;7.90;;;13.20;99.90;;;;;;5058283;28;20212;-75
2022/11/14 02:07:42;;;;;;;10.67;8.67;;;13.20;99.90;;;;;;5069478;28;20194;-74
2022/11/14 02:10:17;;;;;;;9.23;8.33;;;13.20;99.90;;;;;;5044476;28;20685;-75
2022/11/14 02:12:45;;;;;;;9.77;8.63;;;13.10;99.90;;;;;;5076580;28;20781;-74
2022/11/14 02:15:13;;;;;;;12.00;8.50;;;13.10;99.90;;;;;;5062881;28;20190;-74
2022/11/14 02:17:41;;;;;;;9.33;8.10;;;13.20;99.90;;;;;;5081225;28;20199;-75
2022/11/14 02:20:12;;;;;;;13.53;9.17;;;13.10;99.90;;;;;;5082727;28;20724;-75
2022/11/14 02:22:41;;;;;;;10.17;7.70;;;13.10;99.90;;;;;;5066805;28;20201;-75
2022/11/14 02:25:13;;;;;;;9.73;8.73;;;13.10;99.90;;;;;;5086363;28;20182;-75
2022/11/14 02:27:40;;;;;;;10.73;8.13;;;13.10;99.90;;;;;;5067425;28;20193;-75
2022/11/14 02:30:16;;;;;;;10.50;8.53;;;13.10;99.90;;;;;;5076082;28;20218;-74
2022/11/14 02:32:43;;;;;;;9.57;8.23;;;13.20;99.90;;;;;;5047563;28;20269;-75
2022/11/14 02:35:09;;;;;;;11.23;9.30;;;13.20;99.90;;;;;;5074335;28;20194;-74
2022/11/14 02:37:38;;;;;;;9.40;8.50;;;13.20;99.90;;;;;;5045320;28;20190;-75
2022/11/14 02:40:06;;;;;;;10.20;8.70;;;13.20;99.90;;;;;;5078608;28;20330;-74
2022/11/14 02:42:32;;;;;;;9.93;8.40;;;13.20;99.90;;;;;;5072040;28;20182;-74
2022/11/14 02:44:59;;;;;;;8.97;8.07;;;13.10;99.90;;;;;;5054401;28;20936;-75
2022/11/14 02:47:25;;;;;;;13.70;8.97;;;13.10;99.90;;;;;;5071362;28;20178;-75
2022/11/14 02:49:52;;;;;;;9.97;8.17;;;13.10;99.90;;;;;;5078736;28;20277;-75
2022/11/14 02:52:19;;;;;;;11.70;8.90;;;13.00;99.90;;;;;;5067938;28;20278;-75
2022/11/14 02:54:46;;;;;;;11.87;8.23;;;13.10;99.90;;;;;;5064090;28;20182;-75
2022/11/14 02:57:13;;;;;;;10.40;8.37;;;13.00;99.90;;;;;;5085739;28;20259;-75
2022/11/14 02:59:39;;;;;;;10.50;7.93;;;13.00;99.90;;;;;;5082185;28;20294;-75
2022/11/14 03:02:05;;;;;;;9.37;8.23;;;13.00;99.90;;;;;;5065771;28;20183;-75
2022/11/14 03:04:31;;;;;;;11.57;8.20;;;13.10;99.90;;;;;;5089186;28;20209;-75
2022/11/14 03:06:57;;;;;;;8.40;7.50;;;13.10;99.90;;;;;;5060941;28;20575;-75
2022/11/14 03:09:24;;;;;;;9.20;8.07;;;13.00;99.90;;;;;;5067752;28;20670;-75
2022/11/14 03:11:50;;;;;;;11.00;7.73;;;13.00;99.90;;;;;;5078880;28;20606;-75
2022/11/14 03:14:17;;;;;;;9.27;8.00;;;13.00;99.90;;;;;;5055658;28;20186;-75
2022/11/14 03:16:43;;;;;;;10.73;8.87;;;13.00;99.90;;;;;;5067514;28;20186;-75
2022/11/14 03:19:10;;;;;;;9.00;7.83;;;12.90;99.90;;;;;;5081315;28;20186;-75
2022/11/14 03:21:36;;;;;;;10.97;7.63;;;12.90;99.90;;;;;;5055308;28;20194;-75
2022/11/14 03:24:03;;;;;;;11.70;7.40;;;12.90;99.90;;;;;;5066530;28;20243;-75
2022/11/14 03:26:32;;;;;;;9.80;7.57;;;12.90;99.90;;;;;;5074253;28;20869;-75
2022/11/14 03:29:00;;;;;;;8.97;7.30;;;12.90;99.90;;;;;;5070308;28;21074;-75
2022/11/14 03:31:26;;;;;;;11.03;8.13;;;12.90;99.90;;;;;;5073344;28;20235;-75
2022/11/14 03:33:52;;;;;;;8.37;6.80;;;12.80;99.90;;;;;;5067334;28;20178;-75
2022/11/14 03:36:19;;;;;;;8.57;7.67;;;12.80;99.90;;;;;;5060397;28;20224;-75
2022/11/14 03:38:45;;;;;;;7.77;6.77;;;12.80;99.90;;;;;;5056917;28;20190;-75
2022/11/14 03:41:11;;;;;;;11.33;7.47;;;12.70;99.90;;;;;;5086226;28;20194;-75
2022/11/14 03:43:37;;;;;;;7.73;6.17;;;12.70;99.90;;;;;;5064794;28;20671;-75
2022/11/14 03:46:04;;;;;;;10.70;7.43;;;12.70;99.90;;;;;;5068759;28;20195;-75
2022/11/14 03:48:30;;;;;;;9.47;7.10;;;12.70;99.90;;;;;;5091373;28;20270;-75
2022/11/14 03:50:58;;;;;;;11.43;7.10;;;12.70;99.90;;;;;;5076524;28;20182;-75
2022/11/14 03:53:25;;;;;;;8.07;6.87;;;12.70;99.90;;;;;;5066682;28;20190;-75
2022/11/14 03:55:52;;;;;;;8.03;7.10;;;12.70;99.90;;;;;;5053337;28;20240;-75
2022/11/14 03:58:18;;;;;;;8.00;7.00;;;12.70;99.90;;;;;;5067146;28;20198;-75
2022/11/14 04:00:45;;;;;;;9.67;6.80;;;12.70;99.90;;;;;;5069089;28;20186;-75
2022/11/14 04:03:12;;;;;;;8.67;6.93;;;12.70;99.90;;;;;;5074146;28;20753;-75
2022/11/14 04:05:38;;;;;;;8.70;7.07;;;12.70;99.90;;;;;;5050117;28;20542;-75
2022/11/14 04:08:06;;;;;;;8.13;6.80;;;12.70;99.90;;;;;;5066211;28;20183;-75
2022/11/14 04:10:33;;;;;;;9.33;6.73;;;12.80;99.90;;;;;;5041729;28;20761;-75
2022/11/14 04:13:02;;;;;;;10.83;7.70;;;12.80;99.90;;;;;;5072724;28;20681;-75
2022/11/14 04:15:30;;;;;;;11.03;7.47;;;12.80;99.90;;;;;;5084416;28;20228;-75
2022/11/14 04:17:56;;;;;;;10.47;7.20;;;12.80;99.90;;;;;;5061597;28;20192;-75
2022/11/14 04:20:23;;;;;;;11.43;7.37;;;12.80;99.90;;;;;;5068563;28;20229;-75
2022/11/14 04:22:49;;;;;;;9.37;7.23;;;12.80;99.90;;;;;;5070162;28;20190;-75
2022/11/14 04:25:15;;;;;;;9.63;7.40;;;12.80;99.90;;;;;;5064080;28;20240;-75
2022/11/14 04:27:45;;;;;;;10.33;7.17;;;12.80;99.90;;;;;;5075824;28;20292;-75
2022/11/14 04:30:13;;;;;;;10.27;7.47;;;12.80;99.90;;;;;;5061978;28;20186;-75
2022/11/14 04:32:39;;;;;;;9.23;7.20;;;12.80;99.90;;;;;;5069008;28;20470;-75
2022/11/14 04:35:06;;;;;;;8.83;7.47;;;12.80;99.90;;;;;;5047283;28;20193;-75
2022/11/14 04:37:33;;;;;;;8.50;7.57;;;12.80;99.90;;;;;;5069987;28;20182;-75
2022/11/14 04:40:01;;;;;;;9.53;7.00;;;12.80;99.90;;;;;;5045322;28;20609;-75
2022/11/14 04:42:27;;;;;;;10.43;7.63;;;12.80;99.90;;;;;;5080239;28;20190;-75
2022/11/14 04:44:54;;;;;;;9.50;7.63;;;12.80;99.90;;;;;;5053998;28;20209;-75
2022/11/14 04:47:21;;;;;;;9.13;7.60;;;12.80;99.90;;;;;;5068073;28;20637;-75
2022/11/14 04:49:47;;;;;;;11.23;7.67;;;12.80;99.90;;;;;;5064265;28;20277;-75
2022/11/14 04:52:14;;;;;;;9.50;7.73;;;12.80;99.90;;;;;;5061746;28;20240;-75
2022/11/14 04:54:40;;;;;;;9.23;7.70;;;12.80;99.90;;;;;;5067183;28;20811;-75
2022/11/14 04:57:07;;;;;;;8.70;7.27;;;12.80;99.90;;;;;;5073297;28;20198;-75
2022/11/14 04:59:33;;;;;;;9.47;7.37;;;12.80;99.90;;;;;;5069430;28;20197;-75
2022/11/14 05:01:59;;;;;;;11.10;7.20;;;12.80;99.90;;;;;;5087305;28;20190;-75
2022/11/14 05:04:27;;;;;;;11.70;7.87;;;12.80;99.90;;;;;;5065929;28;20246;-75
2022/11/14 05:06:53;;;;;;;12.23;7.87;;;12.80;99.90;;;;;;5081728;28;20213;-75
2022/11/14 05:09:23;;;;;;;12.33;8.13;;;12.80;99.90;;;;;;5074985;28;20808;-75
2022/11/14 05:11:50;;;;;;;9.97;7.97;;;12.70;99.90;;;;;;5070069;28;20663;-75
2022/11/14 05:14:16;;;;;;;11.73;7.60;;;12.70;99.90;;;;;;5042387;28;20734;-75
2022/11/14 05:16:43;;;;;;;11.57;8.17;;;12.70;99.90;;;;;;5061453;28;20209;-75
2022/11/14 05:19:10;;;;;;;10.23;8.00;;;12.70;99.90;;;;;;5059543;28;20706;-75
2022/11/14 05:21:37;;;;;;;11.50;7.93;;;12.70;99.90;;;;;;5061617;28;20190;-75
2022/11/14 05:24:04;;;;;;;8.73;7.63;;;12.70;99.90;;;;;;5066261;28;20213;-75
2022/11/14 05:26:31;;;;;;;8.90;7.43;;;12.70;99.90;;;;;;5064242;28;20187;-75
2022/11/14 05:28:58;;;;;;;11.40;7.67;;;12.70;99.90;;;;;;5069311;28;20178;-75
2022/11/14 05:31:25;;;;;;;12.63;8.00;;;12.70;99.90;;;;;;5056970;28;20559;-75
2022/11/14 05:33:52;;;;;;;10.60;7.70;;;12.70;99.90;;;;;;5053704;28;20183;-75
2022/11/14 05:36:18;;;;;;;9.70;7.87;;;12.60;99.90;;;;;;5057484;28;20191;-75
2022/11/14 05:38:45;;;;;;;8.30;7.40;;;12.60;99.90;;;;;;5066520;28;20678;-75
2022/11/14 05:41:15;;;;;;;11.33;8.17;;;12.70;99.90;;;;;;5074126;28;20186;-75
2022/11/14 05:43:42;;;;;;;8.97;7.67;;;12.70;99.90;;;;;;5065111;28;21041;-75
2022/11/14 05:46:14;;;;;;;8.97;7.57;;;12.70;99.90;;;;;;5067505;28;20947;-75
2022/11/14 05:48:42;;;;;;;11.77;7.63;;;12.80;99.90;;;;;;5067470;28;20635;-75
2022/11/14 05:51:12;;;;;;;9.90;8.10;;;12.90;99.90;;;;;;5048722;28;20175;-75
2022/11/14 05:53:40;;;;;;;9.23;8.10;;;13.00;99.90;;;;;;5078749;28;20244;-74
2022/11/14 05:56:11;;;;;;;10.03;7.93;;;13.10;99.90;;;;;;5065453;28;20189;-75
2022/11/14 05:58:38;;;;;;;9.27;7.37;;;13.10;99.90;;;;;;5065496;28;20186;-75
2022/11/14 06:01:09;;;;;;;14.37;8.40;;;13.20;99.90;;;;;;5085148;28;24034;-75
2022/11/14 06:03:40;;;;;;;10.83;8.57;;;13.30;99.90;;;;;;5056784;28;20300;-75
2022/11/14 06:06:15;;;;;;;9.00;8.07;;;13.40;99.90;;;;;;5084467;28;20636;-75
2022/11/14 06:08:42;;;;;;;9.73;7.90;;;13.40;99.90;;;;;;5066117;28;20217;-75
2022/11/14 06:11:16;;;;;;;10.50;8.00;;;13.50;99.90;;;;;;5049727;28;20965;-75
2022/11/14 06:13:42;;;;;;;10.37;8.10;;;13.60;99.90;;;;;;5072831;28;20207;-75
2022/11/14 06:16:12;;;;;;;7.77;6.90;;;13.60;99.90;;;;;;5078888;28;20277;-75
2022/11/14 06:18:40;;;;;;;9.97;8.17;;;13.70;99.90;;;;;;5061637;28;20208;-75
2022/11/14 06:21:15;;;;;;;10.40;7.73;;;13.80;99.90;;;;;;5062141;28;20198;-75
2022/11/14 06:23:42;;;;;;;8.70;7.43;;;13.80;99.90;;;;;;5086952;28;20644;-75
2022/11/14 06:26:30;;;;;;;9.63;7.50;;;13.90;99.90;;;;;;5080736;28;20213;-75
2022/11/14 06:29:00;;;;;;;10.27;7.27;;;14.00;99.90;;;;;;5085391;28;20186;-75
2022/11/14 06:31:28;;;;;;;8.90;7.07;;;14.10;99.90;;;;;;5079851;28;20193;-75
2022/11/14 06:33:55;;;;;;;12.37;7.33;;;14.20;99.90;;;;;;5083244;28;20216;-75
2022/11/14 06:36:22;;;;;;;9.93;7.50;;;14.20;99.90;;;;;;5065222;28;20195;-75
2022/11/14 06:38:49;;;;;;;11.60;7.43;;;14.30;99.90;;;;;;5069156;28;20194;-75
2022/11/14 06:41:19;;;;;;;8.90;7.07;;;14.30;99.90;;;;;;5080924;28;20202;-75
2022/11/14 06:43:48;;;;;;;10.73;7.17;;;14.40;99.90;;;;;;5073737;28;20216;-75
2022/11/14 06:46:22;;;;;;;10.83;7.40;;;14.40;99.90;;;;;;5071965;28;20213;-75
2022/11/14 06:48:51;;;;;;;10.40;7.60;;;14.50;99.90;;;;;;5071295;28;20201;-75
2022/11/14 06:51:19;;;;;;;9.40;7.50;;;14.50;99.90;;;;;;5068058;28;20179;-75
2022/11/14 06:53:46;;;;;;;10.50;7.33;;;14.50;99.90;;;;;;5048315;28;20182;-75
2022/11/14 06:56:16;;;;;;;9.70;7.17;;;14.50;99.90;;;;;;5057052;28;20213;-75
2022/11/14 06:58:48;;;;;;;10.30;7.70;;;14.50;99.90;;;;;;5073394;28;20769;-74
2022/11/14 07:01:27;;;;;;;10.43;7.10;;;14.60;99.90;;;;;;5067125;28;20183;-75
2022/11/14 07:03:57;;;;;;;8.93;6.67;;;14.60;99.90;;;;;;5080494;28;20214;-75
2022/11/14 07:06:28;;;;;;;11.63;7.80;;;14.70;99.90;;;;;;5061149;28;20280;-75
2022/11/14 07:08:56;;;;;;;11.63;7.37;;;14.70;99.90;;;;;;5060507;28;20232;-75
2022/11/14 07:11:28;;;;;;;13.03;8.07;;;14.80;99.90;;;;;;5047440;28;20690;-75
2022/11/14 07:13:58;;;;;;;8.47;6.90;;;14.80;99.90;;;;;;5070470;28;20186;-75
2022/11/14 07:16:31;;;;;;;10.07;7.20;;;14.80;99.90;;;;;;5064226;28;20187;-75
2022/11/14 07:19:01;;;;;;;9.83;7.50;;;14.90;99.90;;;;;;5065227;28;20319;-76
2022/11/14 07:21:30;;;;;;;12.43;7.40;;;14.90;99.90;;;;;;5084248;28;20239;-75
2022/11/14 07:23:56;;;;;;;11.20;7.30;;;14.90;99.90;;;;;;5078629;28;20213;-75
2022/11/14 07:26:23;;;;;;;11.73;7.43;;;14.90;99.90;;;;;;5068410;28;20193;-75
2022/11/14 07:28:50;;;;;;;14.90;7.43;;;15.00;99.90;;;;;;5074074;28;20187;-75
2022/11/14 07:31:19;;;;;;;10.93;7.47;;;15.10;99.90;;;;;;5080057;28;20184;-75
2022/11/14 07:33:46;;;;;;;9.17;6.90;;;15.10;99.90;;;;;;5082987;28;21265;-75
2022/11/14 07:36:16;;;;;;;9.77;7.27;;;15.20;99.90;;;;;;5062490;28;20201;-75
2022/11/14 07:38:43;;;;;;;9.47;6.90;;;15.30;99.90;;;;;;5077547;28;20270;-75
2022/11/14 07:41:15;;;;;;;9.10;7.37;;;15.40;99.90;;;;;;5063209;28;20206;-75
2022/11/14 07:43:44;;;;;;;9.27;7.40;;;15.60;99.90;;;;;;5051033;28;20206;-75
2022/11/14 07:46:14;;;;;;;10.23;7.10;;;15.60;99.90;;;;;;5069550;28;20205;-75
2022/11/14 07:48:41;;;;;;;8.70;7.13;;;15.70;99.90;;;;;;5073061;28;20652;-75
2022/11/14 07:51:16;;;;;;;9.03;6.97;;;15.70;99.90;;;;;;5089498;28;20277;-75
2022/11/14 07:53:43;;;;;;;8.70;7.17;;;15.80;99.90;;;;;;5045786;28;20186;-75
2022/11/14 07:56:09;;;;;;;12.57;7.53;;;15.90;99.90;;;;;;5079944;28;20183;-75
2022/11/14 07:58:38;;;;;;;10.63;7.40;;;15.90;99.90;;;;;;5075831;28;20248;-75
2022/11/14 08:01:06;;;;;;;8.93;7.07;;;16.00;99.90;;;;;;5075738;28;20194;-75
2022/11/14 08:03:33;;;;;;;10.70;6.60;;;16.10;99.90;;;;;;5081044;28;20297;-75
2022/11/14 08:06:09;;;;;;;9.20;7.03;;;16.20;99.90;;;;;;5076880;28;20648;-75
2022/11/14 08:08:36;;;;;;;10.43;7.30;;;16.30;99.90;;;;;;5082502;28;20543;-75
2022/11/14 08:11:03;;;;;;;7.90;6.50;;;16.30;99.90;;;;;;5052351;28;20190;-75
2022/11/14 08:13:31;;;;;;;13.37;7.53;;;16.40;99.90;;;;;;5052407;28;20193;-75
2022/11/14 08:15:58;;;;;;;8.70;7.07;;;16.50;99.90;;;;;;5087571;28;20194;-75
2022/11/14 08:18:25;;;;;;;10.07;7.23;;;16.70;99.90;;;;;;5083756;28;20325;-75
2022/11/14 08:20:56;;;;;;;13.07;7.83;;;16.70;99.90;;;;;;5069384;28;20653;-75
2022/11/14 08:23:23;;;;;;;11.07;8.10;;;16.90;99.90;;;;;;5067999;28;21514;-75
2022/11/14 08:25:50;;;;;;;11.47;8.10;;;16.90;99.90;;;;;;5069204;28;20192;-75
2022/11/14 08:28:16;;;;;;;8.33;7.33;;;17.10;99.90;;;;;;5080515;28;20188;-75
2022/11/14 08:30:42;;;;;;;11.53;7.80;;;17.20;99.90;;;;;;5077975;28;20185;-73
2022/11/14 08:33:09;;;;;;;11.33;7.40;;;17.30;99.90;;;;;;5072662;28;20183;-75
2022/11/14 08:35:35;;;;;;;12.07;7.47;;;17.50;99.90;;;;;;5065793;28;20998;-75
2022/11/14 08:38:02;;;;;;;8.33;6.87;;;17.50;99.90;;;;;;5070434;28;20220;-75
2022/11/14 08:40:29;;;;;;;10.87;7.57;;;17.50;99.90;;;;;;5074611;28;20273;-75
2022/11/14 08:43:01;;;;;;;9.80;7.27;;;17.40;99.90;;;;;;5081551;28;20197;-75
2022/11/14 08:45:28;;;;;;;11.10;7.60;;;17.50;99.90;;;;;;5082593;28;20300;-75
2022/11/14 08:47:55;;;;;;;9.37;7.57;;;17.60;99.90;;;;;;5064148;28;20174;-75
2022/11/14 08:50:22;;;;;;;10.37;7.47;;;17.70;99.90;;;;;;5061762;28;20213;-75
2022/11/14 08:52:51;;;;;;;12.17;7.63;;;17.80;99.90;;;;;;5074357;28;20665;-75
2022/11/14 08:55:20;;;;;;;10.60;7.67;;;17.80;99.90;;;;;;5059627;28;20787;-75
2022/11/14 08:57:46;;;;;;;11.27;7.57;;;17.80;99.90;;;;;;5088074;28;20668;-75
2022/11/14 09:00:13;;;;;;;9.43;7.57;;;17.90;99.90;;;;;;5083577;28;20251;-76
2022/11/14 09:02:41;;;;;;;9.37;7.47;;;18.00;99.90;;;;;;5070715;28;20284;-75
2022/11/14 09:05:10;;;;;;;11.20;8.10;;;18.10;99.90;;;;;;5067281;28;20263;-75
2022/11/14 09:07:37;;;;;;;9.30;7.33;;;18.20;99.90;;;;;;5064976;28;20265;-74
2022/11/14 09:10:05;;;;;;;12.63;7.40;;;18.30;99.90;;;;;;5082591;28;20617;-74
2022/11/14 09:12:31;;;;;;;12.57;7.33;;;18.40;99.90;;;;;;5071365;28;20186;-75
2022/11/14 09:15:01;;;;;;;9.97;7.40;;;18.40;99.90;;;;;;5049791;28;20186;-75
2022/11/14 09:17:30;;;;;;;15.60;8.30;;;18.50;99.90;;;;;;5036048;28;20323;-75
2022/11/14 09:19:56;;;;;;;8.37;6.97;;;18.40;99.90;;;;;;5072909;28;20214;-75
2022/11/14 09:22:23;;;;;;;10.53;7.93;;;18.50;99.90;;;;;;5078666;28;20190;-75
2022/11/14 09:24:50;;;;;;;9.40;6.77;;;18.60;99.90;;;;;;5052967;28;20298;-75
2022/11/14 09:27:17;;;;;;;10.57;6.93;;;18.70;99.90;;;;;;5042287;28;20607;-74
2022/11/14 09:29:46;;;;;;;9.17;7.27;;;18.70;99.90;;;;;;5056636;28;20265;-75
2022/11/14 09:32:12;;;;;;;8.83;6.60;;;18.70;99.90;;;;;;5078945;28;20678;-76
2022/11/14 09:34:41;;;;;;;13.63;6.40;;;18.70;99.90;;;;;;5070651;28;20183;-75
2022/11/14 09:37:08;;;;;;;8.73;6.30;;;18.60;99.90;;;;;;5083336;28;20189;-76
2022/11/14 09:39:38;;;;;;;11.60;6.57;;;18.50;99.90;;;;;;5055384;28;20233;-75
2022/11/14 09:42:51;;;;;;;8.50;6.80;;;18.50;99.90;;;;;;5078581;28;20187;-76
2022/11/14 09:45:19;;;;;;;9.43;6.87;;;18.50;99.90;;;;;;5058518;28;20214;-75
2022/11/14 09:48:02;;;;;;;9.40;6.57;;;18.50;99.90;;;;;;5049186;28;20350;-76
2022/11/14 09:50:42;;;;;;;10.50;6.60;;;18.60;99.90;;;;;;5050881;28;20225;-76
2022/11/14 09:53:40;;;;;;;8.53;6.47;;;18.70;99.90;;;;;;5087828;28;20181;-76
2022/11/14 09:56:14;;;;;;;10.07;6.00;;;18.70;99.90;;;;;;5084922;28;20208;-75
2022/11/14 09:58:41;;;;;;;12.00;6.83;;;18.90;99.90;;;;;;5080616;28;20190;-76
2022/11/14 10:02:04;;;;;;;11.50;6.40;;;19.00;99.90;;;;;;5048322;28;20546;-76
2022/11/14 10:05:15;;;;;;;8.07;6.17;;;19.10;99.90;;;;;;5013324;28;20207;-75
2022/11/14 10:08:01;;;;;;;7.33;6.07;;;19.30;99.90;;;;;;4992772;28;20711;-75
2022/11/14 10:10:42;;;;;;;8.43;6.00;;;19.40;99.90;;;;;;5067135;28;20194;-76
2022/11/14 10:13:44;;;;;;;9.30;6.37;;;19.50;99.90;;;;;;5053346;28;21209;-76
2022/11/14 10:16:25;;;;;;;8.40;6.53;;;19.60;99.90;;;;;;5086366;28;20177;-76
2022/11/14 10:19:15;;;;;;;11.27;6.53;;;19.90;99.90;;;;;;5071639;28;20193;-76
2022/11/14 10:22:10;;;;;;;14.27;6.97;;;20.00;99.90;;;;;;5060102;28;20190;-75
2022/11/14 10:25:16;;;;;;;8.90;6.53;;;20.10;99.90;;;;;;5078205;28;20758;-75
2022/11/14 10:28:20;;;;;;;10.03;6.47;;;20.30;99.90;;;;;;5059099;28;20195;-75
2022/11/14 10:31:23;;;;;;;9.33;6.60;;;20.50;99.90;;;;;;5062055;28;20178;-76
2022/11/14 10:34:28;;;;;;;11.27;6.60;;;20.30;99.90;;;;;;5062250;28;20190;-76
2022/11/14 10:37:19;;;;;;;16.00;6.60;;;20.30;99.90;;;;;;5064890;28;20293;-76
2022/11/14 10:39:54;;;;;;;13.87;6.50;;;20.30;99.90;;;;;;5067950;28;20190;-75
2022/11/14 10:42:38;;;;;;;10.03;6.37;;;20.30;99.90;;;;;;5057760;28;20548;-75
2022/11/14 10:45:25;;;;;;;15.15;6.57;;;20.30;99.90;;;;;;5085228;28;20245;-74
2022/11/14 10:48:23;;;;;;;7.10;5.97;;;20.40;99.90;;;;;;5067963;28;20186;-75
2022/11/14 10:51:14;;;;;;;10.48;6.60;;;20.60;99.90;;;;;;5061978;28;20182;-75
2022/11/14 10:53:50;;;;;;;12.25;7.15;;;20.80;99.90;;;;;;5048505;28;20178;-75
2022/11/14 10:56:16;;;;;;;7.32;6.45;;;21.10;99.90;;;;;;5084609;28;20228;-75
2022/11/14 10:58:44;;;;;;;7.88;6.75;;;21.20;99.90;;;;;;5067870;28;20260;-75
2022/11/14 11:01:53;;;;;;;8.38;6.53;;;21.20;99.90;;;;;;5077897;28;20190;-76
2022/11/14 11:04:29;;;;;;;8.82;6.70;;;21.30;99.90;;;;;;5060743;28;20292;-75
2022/11/14 11:12:52;;;;;;;11.45;6.35;;;20.60;99.90;;;;;;5059087;28;20595;-75
2022/11/14 11:15:39;;;;;;;14.98;6.85;;;20.60;99.90;;;;;;5062772;28;20611;-75
2022/11/14 11:18:26;;;;;;;8.77;6.93;;;20.60;99.90;;;;;;5083537;28;20190;-75
2022/11/14 11:21:10;;;;;;;9.30;7.18;;;20.60;99.90;;;;;;5082897;28;20596;-75
2022/11/14 11:23:55;;;;;;;13.13;6.90;;;20.60;99.90;;;;;;5065538;28;20356;-74
2022/11/14 11:26:27;;;;;;;11.50;7.20;;;20.60;99.90;;;;;;5066925;28;20205;-74
2022/11/14 11:29:10;;;;;;;8.67;6.40;;;20.60;99.90;;;;;;5065963;28;20194;-75
2022/11/14 11:31:57;;;;;;;27.37;7.57;;;20.60;99.90;;;;;;5064277;28;20226;-75
2022/11/14 11:34:32;;;;;;;10.50;6.77;;;20.50;99.90;;;;;;5061273;28;20835;-76
2022/11/14 11:37:08;;;;;;;8.05;6.38;;;20.50;99.90;;;;;;5035743;28;20197;-76
2022/11/14 11:39:49;;;;;;;23.83;7.60;;;20.60;99.90;;;;;;5068444;28;20247;-77
2022/11/14 11:42:29;;;;;;;8.50;6.60;;;20.60;99.90;;;;;;5063178;28;20818;-76
2022/11/14 11:45:00;;;;;;;15.47;7.10;;;20.60;99.90;;;;;;5063724;28;20237;-77
2022/11/14 11:47:31;;;;;;;27.33;7.77;;;20.60;99.90;;;;;;5082854;28;20190;-76
2022/11/14 11:50:02;;;;;;;11.53;6.73;;;20.60;99.90;;;;;;5078130;28;20332;-76
2022/11/14 11:53:02;;;;;;;8.23;6.27;;;20.50;99.90;;;;;;5062668;28;20186;-77
2022/11/14 11:56:24;;;;;;;13.20;6.73;;;20.60;99.90;;;;;;5065223;28;20599;-76
2022/11/14 11:59:15;;;;;;;8.87;6.73;;;20.60;99.90;;;;;;5041426;28;20213;-76
2022/11/14 12:01:43;;;;;;;9.23;6.47;;;20.50;99.90;;;;;;5079263;28;20187;-76
2022/11/14 12:04:09;;;;;;;9.53;6.50;;;20.50;99.90;;;;;;5050993;28;20210;-76
2022/11/14 12:06:51;;;;;;;12.57;7.00;;;20.40;99.90;;;;;;5048824;28;20269;-76
2022/11/14 12:09:32;;;;;;;8.37;6.90;;;20.40;99.90;;;;;;5070579;28;20186;-76
2022/11/14 12:12:15;;;;;;;8.13;6.53;;;20.40;99.90;;;;;;5053695;28;20529;-76
2022/11/14 12:15:27;;;;;;;9.03;6.73;;;20.30;99.90;;;;;;5058306;28;20182;-76
2022/11/14 12:18:28;;;;;;;8.80;6.50;;;20.30;99.90;;;;;;5040592;28;20194;-76
2022/11/14 12:21:20;;;;;;;7.63;6.33;;;20.30;99.90;;;;;;5077829;28;20197;-76
2022/11/14 12:24:24;;;;;;;8.33;6.40;;;20.30;99.90;;;;;;5088073;28;20207;-76
2022/11/14 12:27:08;;;;;;;8.83;6.80;;;20.20;99.90;;;;;;5084858;28;20189;-76
2022/11/14 12:30:12;;;;;;;10.43;7.30;;;20.20;99.90;;;;;;5087545;28;20223;-76
2022/11/14 12:33:00;;;;;;;10.83;6.80;;;20.20;99.90;;;;;;5092063;28;20662;-76
2022/11/14 12:35:31;;;;;;;8.67;7.17;;;20.10;99.90;;;;;;5068320;28;20194;-76
2022/11/14 12:38:03;;;;;;;11.07;6.50;;;20.10;99.90;;;;;;5046950;28;20260;-76
2022/11/14 12:40:42;;;;;;;8.50;6.73;;;20.10;99.90;;;;;;5059171;28;20187;-76
2022/11/14 12:43:41;;;;;;;7.70;6.57;;;20.00;99.90;;;;;;5069917;28;20197;-76
2022/11/14 12:46:12;;;;;;;7.73;6.30;;;19.90;99.90;;;;;;5057808;28;20260;-76
2022/11/14 12:48:46;;;;;;;11.27;6.93;;;19.90;99.90;;;;;;5070230;28;20182;-76
2022/11/14 12:51:25;;;;;;;9.67;7.27;;;19.90;99.90;;;;;;5058315;28;20183;-76
2022/11/14 12:53:55;;;;;;;14.00;6.87;;;19.80;99.90;;;;;;5067184;28;20182;-76
2022/11/14 12:56:30;;;;;;;15.97;7.20;;;19.70;99.90;;;;;;5068553;28;21128;-76
2022/11/14 12:59:38;;;;;;;11.50;6.57;;;19.70;99.90;;;;;;5078700;28;20212;-76
2022/11/14 13:02:45;;;;;;;8.70;6.87;;;19.60;99.90;;;;;;5082512;28;20275;-76
2022/11/14 13:06:05;;;;;;;9.67;6.53;;;19.60;99.90;;;;;;5004830;28;20299;-76
2022/11/14 13:09:21;;;;;;;9.77;7.27;;;19.50;99.90;;;;;;4986687;28;20616;-79
2022/11/14 13:23:28;;;;;;;11.60;7.30;;;19.30;99.90;;;;;;5085431;28;20186;-76
2022/11/14 13:26:10;;;;;;;11.87;7.30;;;19.10;99.90;;;;;;5075670;28;20344;-76
2022/11/14 13:28:46;;;;;;;8.97;6.70;;;19.10;99.90;;;;;;5061970;28;20581;-77